Time;durP1;ratioP1;P1;durP2;ratioP2;P2;SDS_P1;SDS_P2;PMS_P1;PMS_P2;Temp;Humidity;BMP_temperature;BMP_pressure;BME280_temperature;BME280_humidity;BME280_pressure;Samples;Min_cycle;Max_cycle;Signal;HPM_P1;HPM_P2
2021/12/10 00:00:48;;;;;;;7.78;5.22;;;;;;;-1.72;43.12;101059.19;3361043;29;20048;-75
2021/12/10 00:02:34;;;;;;;9.85;4.75;;;;;;;-1.75;42.83;101056.75;3361316;29;20052;-74
2021/12/10 00:04:19;;;;;;;9.40;5.13;;;;;;;-1.76;42.87;101055.03;3361401;29;20048;-77
2021/12/10 00:06:05;;;;;;;6.63;4.10;;;;;;;-1.77;42.93;101059.44;3361121;29;20438;-75
2021/12/10 00:07:46;;;;;;;9.10;5.03;;;;;;;-1.83;43.01;101059.75;3360469;29;20068;-77
2021/12/10 00:09:36;;;;;;;8.73;4.05;;;;;;;-1.84;42.87;101063.28;3361528;29;20045;-75
2021/12/10 00:11:25;;;;;;;9.32;4.63;;;;;;;-1.88;43.14;101059.16;3361121;29;20085;-77
2021/12/10 00:13:10;;;;;;;7.53;4.60;;;;;;;-1.86;42.98;101064.28;3362248;29;20077;-78
2021/12/10 00:14:51;;;;;;;9.63;5.18;;;;;;;-1.89;43.30;101060.06;3361553;29;20048;-78
2021/12/10 00:16:32;;;;;;;7.47;4.30;;;;;;;-1.85;43.21;101061.59;3362189;29;20068;-76
2021/12/10 00:18:17;;;;;;;10.38;4.15;;;;;;;-1.85;42.88;101063.38;3361153;29;20109;-77
2021/12/10 00:19:59;;;;;;;8.07;4.35;;;;;;;-1.88;42.80;101053.94;3358408;29;20413;-77
2021/12/10 00:21:40;;;;;;;7.00;5.07;;;;;;;-1.89;43.33;101054.84;3373813;29;20047;-76
2021/12/10 00:23:21;;;;;;;8.98;4.78;;;;;;;-1.85;42.78;101059.00;3361102;29;20052;-76
2021/12/10 00:25:07;;;;;;;6.30;4.28;;;;;;;-1.88;42.73;101061.78;3361905;29;20071;-75
2021/12/10 00:26:48;;;;;;;9.07;4.70;;;;;;;-1.89;43.04;101060.06;3352589;29;20037;-75
2021/12/10 00:28:38;;;;;;;11.70;4.95;;;;;;;-1.84;42.85;101072.91;3351597;29;20053;-75
2021/12/10 00:30:27;;;;;;;7.60;4.82;;;;;;;-1.83;43.16;101070.22;3360480;29;20477;-75
2021/12/10 00:32:18;;;;;;;12.43;4.60;;;;;;;-1.86;42.73;101064.28;3364645;29;20041;-76
2021/12/10 00:34:03;;;;;;;7.15;4.13;;;;;;;-1.86;42.77;101065.16;3378402;29;20040;-76
2021/12/10 00:35:44;;;;;;;9.18;4.55;;;;;;;-1.85;43.38;101063.38;3364834;29;20044;-75
2021/12/10 00:37:24;;;;;;;11.23;6.25;;;;;;;-1.86;43.19;101062.53;3372625;29;20407;-75
2021/12/10 00:39:09;;;;;;;10.80;5.68;;;;;;;-1.86;42.87;101064.28;3375358;29;20097;-73
2021/12/10 00:40:51;;;;;;;8.23;4.93;;;;;;;-1.86;42.73;101061.69;3374643;29;20096;-77
2021/12/10 00:42:33;;;;;;;9.70;4.65;;;;;;;-1.87;42.88;101068.69;3374224;29;20068;-74
2021/12/10 00:44:14;;;;;;;;;;;;;;;-1.76;42.87;101068.97;3375485;29;20036;-74
2021/12/10 00:45:55;;;;;;;9.27;4.40;;;;;;;-1.84;42.81;101068.50;3366425;29;19963;-75
2021/12/10 00:47:37;;;;;;;6.95;4.68;;;;;;;-1.84;42.81;101071.13;3369587;29;20036;-74
2021/12/10 00:49:18;;;;;;;10.45;4.90;;;;;;;-1.85;42.85;101072.06;3373771;29;20047;-75
2021/12/10 00:50:59;;;;;;;8.77;4.78;;;;;;;-1.87;42.71;101080.91;3374070;29;20381;-73
2021/12/10 00:52:42;;;;;;;10.90;5.40;;;;;;;-1.88;42.92;101085.28;3374250;29;20092;-74
2021/12/10 00:54:23;;;;;;;8.05;4.45;;;;;;;-1.89;43.02;101078.34;3374576;29;20043;-74
2021/12/10 00:56:06;;;;;;;8.20;4.13;;;;;;;-1.89;42.62;101065.28;3374764;29;20075;-73
2021/12/10 00:57:47;;;;;;;8.68;5.95;;;;;;;-1.90;42.96;101074.06;3375037;29;20044;-73
2021/12/10 00:59:28;;;;;;;5.32;3.95;;;;;;;-1.89;42.76;101070.50;3374786;29;20068;-75
2021/12/10 01:01:18;;;;;;;7.07;4.22;;;;;;;-1.88;42.88;101074.00;3374906;29;20480;-76
2021/12/10 01:02:59;;;;;;;10.30;5.57;;;;;;;-1.91;42.81;101069.78;3364387;29;20527;-75
2021/12/10 01:04:42;;;;;;;9.02;5.15;;;;;;;-1.88;43.00;101066.16;3374560;29;20044;-75
2021/12/10 01:06:24;;;;;;;8.32;4.47;;;;;;;-1.89;42.72;101075.75;3373305;29;20088;-75
2021/12/10 01:08:06;;;;;;;11.73;5.75;;;;;;;-1.87;42.80;101073.06;3374410;29;20051;-73
2021/12/10 01:09:49;;;;;;;11.52;4.75;;;;;;;-1.88;42.69;101077.44;3375107;29;20037;-76
2021/12/10 01:11:39;;;;;;;8.32;4.78;;;;;;;-1.86;43.01;101070.38;3374277;29;20065;-75
2021/12/10 01:13:26;;;;;;;7.13;4.18;;;;;;;-1.89;43.10;101073.13;3385821;29;20029;-75
2021/12/10 01:25:36;;;;;;;7.22;4.20;;;;;;;-2.09;42.74;101078.53;3375856;29;20048;-75
2021/12/10 01:27:30;;;;;;;7.43;4.60;;;;;;;-2.14;42.71;101075.31;3374774;29;20041;-77
2021/12/10 01:29:14;;;;;;;6.97;4.15;;;;;;;-2.24;43.01;101064.53;3374654;29;20045;-75
2021/12/10 01:30:54;;;;;;;6.20;3.67;;;;;;;-2.22;42.78;101084.41;3373691;29;20041;-75
2021/12/10 01:32:37;;;;;;;5.82;4.20;;;;;;;-2.24;43.03;101073.19;3374034;29;20047;-75
2021/12/10 01:34:18;;;;;;;10.73;4.70;;;;;;;-2.26;43.32;101069.81;3374537;29;20052;-76
2021/12/10 01:36:01;;;;;;;11.77;4.72;;;;;;;-2.24;43.15;101069.75;3374121;29;20071;-75
2021/12/10 01:37:42;;;;;;;6.72;4.20;;;;;;;-2.24;42.83;101086.25;3374112;29;20045;-73
2021/12/10 01:39:27;;;;;;;8.63;4.10;;;;;;;-2.23;43.07;101087.94;3374552;29;20138;-74
2021/12/10 01:41:11;;;;;;;4.88;3.45;;;;;;;-2.24;43.21;101091.47;3374905;29;20497;-73
2021/12/10 01:42:59;;;;;;;6.38;3.60;;;;;;;-2.23;42.87;101084.50;3375246;29;20049;-74
2021/12/10 01:44:45;;;;;;;6.88;4.28;;;;;;;-2.27;43.33;101081.19;3356153;29;20064;-76
2021/12/10 01:46:27;;;;;;;8.60;5.05;;;;;;;-2.26;43.09;101079.41;3358937;29;20509;-74
2021/12/10 01:48:12;;;;;;;5.72;3.60;;;;;;;-2.25;42.98;101078.50;3361745;29;20136;-74
2021/12/10 01:49:53;;;;;;;4.00;3.63;;;;;;;-2.26;42.98;101080.25;3368908;29;20036;-73
2021/12/10 01:51:36;;;;;;;5.50;3.67;;;;;;;-2.27;42.97;101078.59;3374426;29;20044;-73
2021/12/10 01:53:20;;;;;;;6.93;3.78;;;;;;;-2.31;43.23;101079.66;3374589;29;20051;-75
2021/12/10 01:55:03;;;;;;;8.02;4.55;;;;;;;-2.33;43.46;101071.03;3378594;29;20046;-77
2021/12/10 01:56:44;;;;;;;8.82;4.88;;;;;;;-2.45;43.04;101061.25;3379066;29;20046;-76
2021/12/10 01:58:28;;;;;;;8.77;4.95;;;;;;;-2.34;43.13;101074.59;3376308;29;20408;-75
2021/12/10 02:00:10;;;;;;;8.00;3.88;;;;;;;-2.32;43.35;101087.53;3376675;29;20041;-76
2021/12/10 02:01:52;;;;;;;;;;;;;;;-2.23;43.43;101089.72;3377440;29;20099;-75
2021/12/10 02:03:33;;;;;;;6.27;3.90;;;;;;;-2.30;43.04;101093.53;3376084;29;19971;-75
2021/12/10 02:05:14;;;;;;;6.53;3.35;;;;;;;-2.32;42.88;101093.63;3375812;29;20160;-76
2021/12/10 02:06:56;;;;;;;5.45;3.42;;;;;;;-2.34;43.11;101089.41;3376849;29;20056;-77
2021/12/10 02:08:38;;;;;;;6.22;3.60;;;;;;;-2.34;43.10;101095.47;3377654;29;20037;-77
2021/12/10 02:10:21;;;;;;;9.07;4.68;;;;;;;-2.35;42.93;101087.72;3377008;29;20045;-75
2021/12/10 02:12:03;;;;;;;8.05;3.42;;;;;;;-2.36;43.17;101092.09;3376396;29;20095;-76
2021/12/10 02:13:45;;;;;;;6.70;5.28;;;;;;;-2.37;43.26;101085.19;3377448;29;20044;-78
2021/12/10 02:15:28;;;;;;;6.78;4.30;;;;;;;-2.37;43.15;101085.19;3377665;29;20039;-76
2021/12/10 02:17:09;;;;;;;7.60;3.85;;;;;;;-2.38;43.30;101083.50;3376848;29;20428;-75
2021/12/10 02:18:50;;;;;;;7.32;4.22;;;;;;;-2.42;43.21;101071.53;3376867;29;20040;-77
2021/12/10 02:20:54;;;;;;;6.32;4.32;;;;;;;-2.34;43.21;101079.81;3373596;29;20043;-75
2021/12/10 02:22:35;;;;;;;4.55;3.75;;;;;;;-2.35;42.91;101085.97;3376354;29;20139;-77
2021/12/10 02:24:16;;;;;;;6.55;4.57;;;;;;;-2.38;42.94;101080.88;3376771;29;20052;-77
2021/12/10 02:25:58;;;;;;;11.00;4.65;;;;;;;-2.33;43.08;101097.16;3376859;29;20048;-76
2021/12/10 02:27:39;;;;;;;9.00;4.47;;;;;;;-2.34;42.98;101086.81;3376988;29;20051;-78
2021/12/10 02:29:23;;;;;;;5.45;4.82;;;;;;;-2.34;42.93;101084.19;3376673;29;20044;-74
2021/12/10 02:31:05;;;;;;;8.68;5.32;;;;;;;-2.35;43.12;101087.72;3377257;29;20048;-76
2021/12/10 02:32:46;;;;;;;7.00;5.00;;;;;;;-2.37;43.28;101085.19;3376691;29;20503;-76
2021/12/10 02:34:28;;;;;;;10.70;6.35;;;;;;;-2.39;42.89;101084.41;3376298;29;20032;-76
2021/12/10 02:36:12;;;;;;;10.35;5.05;;;;;;;-2.42;43.35;101089.81;3375595;29;20045;-74
2021/12/10 02:37:53;;;;;;;7.72;5.05;;;;;;;-2.43;43.09;101090.69;3376668;29;20081;-75
2021/12/10 02:39:34;;;;;;;14.18;4.93;;;;;;;-2.43;43.47;101094.19;3377216;29;20137;-75
2021/12/10 02:41:18;;;;;;;11.40;6.10;;;;;;;-2.43;43.46;101090.69;3376453;29;20566;-74
2021/12/10 02:43:01;;;;;;;11.45;5.50;;;;;;;-2.49;43.26;101084.03;3376111;29;20080;-75
2021/12/10 02:44:42;;;;;;;9.18;5.00;;;;;;;-2.47;43.51;101094.41;3388321;29;20054;-75
2021/12/10 02:46:23;;;;;;;11.98;6.03;;;;;;;-2.49;43.41;101091.03;3375120;29;20416;-74
2021/12/10 02:48:04;;;;;;;12.25;6.22;;;;;;;-2.46;43.15;101101.31;3376243;29;20457;-73
2021/12/10 02:49:45;;;;;;;14.43;7.22;;;;;;;-2.47;43.21;101089.19;3362598;29;20112;-75
2021/12/10 02:51:27;;;;;;;19.75;7.22;;;;;;;-2.45;43.22;101108.22;3376549;29;20147;-76
2021/12/10 02:53:08;;;;;;;13.25;7.65;;;;;;;-2.49;43.38;101089.25;3376031;29;20049;-77
2021/12/10 02:54:49;;;;;;;13.15;7.00;;;;;;;-2.50;43.26;101098.00;3376398;29;20044;-77
2021/12/10 02:56:30;;;;;;;11.50;6.95;;;;;;;-2.56;43.26;101102.69;3376160;29;20519;-77
2021/12/10 02:58:12;;;;;;;16.65;7.03;;;;;;;-2.61;43.87;101109.88;3376916;29;20072;-76
2021/12/10 02:59:53;;;;;;;19.58;8.05;;;;;;;-2.64;43.82;101098.66;3376490;29;20421;-75
2021/12/10 03:01:38;;;;;;;13.03;7.67;;;;;;;-2.66;44.29;101110.97;3375575;29;20037;-77
2021/12/10 03:03:20;;;;;;;13.35;7.80;;;;;;;-2.66;43.82;101110.97;3375516;29;20309;-76
2021/12/10 03:05:00;;;;;;;15.70;7.60;;;;;;;-2.68;44.08;101107.59;3375935;29;20037;-75
2021/12/10 03:06:49;;;;;;;14.88;7.78;;;;;;;-2.68;43.95;101104.97;3375825;29;20299;-75
2021/12/10 03:08:29;;;;;;;16.88;7.60;;;;;;;-2.67;43.74;101105.81;3376050;29;20052;-75
2021/12/10 03:10:16;;;;;;;12.98;7.93;;;;;;;-2.66;43.58;101105.75;3376215;29;20116;-74
2021/12/10 03:11:58;;;;;;;17.05;8.13;;;;;;;-2.70;43.90;101114.63;3376167;29;20508;-74
2021/12/10 03:13:40;;;;;;;15.13;7.35;;;;;;;-2.71;43.83;101109.47;3375747;29;20047;-73
2021/12/10 03:15:22;;;;;;;15.25;8.10;;;;;;;-2.72;43.73;101126.06;3376249;29;20167;-76
2021/12/10 03:17:08;;;;;;;18.23;8.68;;;;;;;-2.74;43.81;101130.50;3375997;29;20385;-75
2021/12/10 03:18:49;;;;;;;20.35;8.77;;;;;;;-2.75;43.70;101116.63;3363173;29;20041;-72
2021/12/10 03:20:31;;;;;;;17.73;9.05;;;;;;;-2.72;43.80;101126.06;3375917;29;20037;-74
2021/12/10 03:22:13;;;;;;;19.52;8.25;;;;;;;-2.71;43.39;101130.34;3375824;29;20436;-71
2021/12/10 03:23:54;;;;;;;;;;;;;;;-2.61;43.41;101121.16;3375146;29;20144;-70
2021/12/10 03:25:34;;;;;;;15.77;7.22;;;;;;;-2.67;43.37;101139.75;3375450;29;20026;-73
2021/12/10 03:27:15;;;;;;;18.67;8.32;;;;;;;-2.70;43.23;101130.28;3375895;29;20105;-72
2021/12/10 03:28:56;;;;;;;11.45;7.35;;;;;;;-2.73;43.36;101127.84;3376253;29;20386;-72
2021/12/10 03:30:42;;;;;;;17.47;7.63;;;;;;;-2.73;43.53;101132.22;3375947;29;20040;-72
2021/12/10 03:32:28;;;;;;;22.90;9.18;;;;;;;-2.73;43.31;101127.84;3375300;29;20301;-70
2021/12/10 03:34:09;;;;;;;13.23;6.95;;;;;;;-2.76;43.69;101120.16;3375591;29;20044;-72
2021/12/10 03:35:50;;;;;;;12.77;6.80;;;;;;;-2.77;43.31;101118.47;3375993;29;20040;-75
2021/12/10 03:37:31;;;;;;;18.00;7.20;;;;;;;-2.78;43.69;101127.22;3375947;29;20122;-74
2021/12/10 03:39:22;;;;;;;17.08;7.78;;;;;;;-2.78;43.55;101127.22;3361872;29;20057;-74
2021/12/10 03:41:03;;;;;;;14.63;8.23;;;;;;;-2.84;43.75;101127.50;3376069;29;20036;-72
2021/12/10 03:42:47;;;;;;;14.82;6.60;;;;;;;-2.86;43.96;101131.97;3361532;29;20036;-77
2021/12/10 03:44:28;;;;;;;16.70;7.95;;;;;;;-2.89;44.17;101134.69;3372554;29;20497;-76
2021/12/10 03:46:09;;;;;;;14.23;7.15;;;;;;;-2.90;43.95;101135.63;3371981;29;20099;-76
2021/12/10 03:47:49;;;;;;;12.70;6.63;;;;;;;-2.90;44.10;101131.25;3376035;29;20036;-74
2021/12/10 03:49:31;;;;;;;15.18;7.05;;;;;;;-2.90;44.05;101133.84;3375566;29;20131;-74
2021/12/10 03:51:19;;;;;;;16.88;8.63;;;;;;;-2.89;44.28;101137.28;3376971;29;20052;-74
2021/12/10 03:53:00;;;;;;;17.13;8.18;;;;;;;-2.93;43.97;101128.78;3377858;29;20045;-76
2021/12/10 03:54:42;;;;;;;14.75;8.50;;;;;;;-2.91;44.33;101128.72;3377916;29;20397;-76
2021/12/10 03:56:25;;;;;;;10.18;6.22;;;;;;;-2.90;44.37;101127.78;3390208;29;20407;-75
2021/12/10 03:58:06;;;;;;;14.57;7.47;;;;;;;-2.90;44.21;101130.41;3377129;29;20041;-76
2021/12/10 03:59:46;;;;;;;18.08;8.05;;;;;;;-2.91;44.11;101134.78;3376875;29;20508;-75
2021/12/10 04:01:31;;;;;;;17.00;8.52;;;;;;;-2.91;44.40;101133.94;3376842;29;20504;-75
2021/12/10 04:03:18;;;;;;;14.38;7.38;;;;;;;-2.90;44.51;101125.19;3389168;29;20061;-77
2021/12/10 04:04:59;;;;;;;14.18;8.02;;;;;;;-2.90;44.09;101127.78;3377823;29;20071;-74
2021/12/10 04:06:40;;;;;;;12.85;7.05;;;;;;;-2.92;44.32;101124.41;3375154;29;20064;-74
2021/12/10 04:08:21;;;;;;;16.08;7.22;;;;;;;-2.93;44.32;101122.72;3367667;29;20048;-76
2021/12/10 04:10:05;;;;;;;18.80;8.68;;;;;;;-2.87;44.37;101130.25;3375351;29;20040;-77
2021/12/10 04:11:46;;;;;;;15.02;8.20;;;;;;;-2.85;44.39;101121.44;3361102;29;20045;-73
2021/12/10 04:13:27;;;;;;;15.10;7.88;;;;;;;-2.81;44.25;101118.66;3375743;29;20191;-77
2021/12/10 04:15:10;;;;;;;16.45;9.25;;;;;;;-2.79;44.48;101125.50;3373796;29;20365;-76
2021/12/10 04:16:56;;;;;;;;;;;;;;;-2.68;44.13;101128.47;3368197;29;20595;-74
2021/12/10 04:18:37;;;;;;;15.75;7.28;;;;;;;-2.75;43.98;101123.63;3365850;29;19971;-76
2021/12/10 04:20:20;;;;;;;18.38;7.30;;;;;;;-2.73;44.06;101134.81;3363064;29;20505;-74
2021/12/10 04:22:03;;;;;;;18.08;8.27;;;;;;;-2.72;44.11;101126.06;3366855;29;20130;-75
2021/12/10 04:23:44;;;;;;;13.27;7.38;;;;;;;-2.71;44.32;101133.84;3384678;29;20043;-75
2021/12/10 04:25:25;;;;;;;17.33;8.93;;;;;;;-2.71;44.20;101128.63;3376258;29;20036;-75
2021/12/10 04:27:09;;;;;;;14.68;8.95;;;;;;;-2.70;44.32;101135.50;3375537;29;20135;-76
2021/12/10 04:28:51;;;;;;;16.13;8.65;;;;;;;-2.69;44.42;101133.75;3375964;29;20116;-75
2021/12/10 04:30:37;;;;;;;17.00;9.65;;;;;;;-2.70;44.25;101135.50;3374275;29;20036;-78
2021/12/10 04:32:18;;;;;;;14.18;8.00;;;;;;;-2.67;44.27;101137.97;3375251;29;20447;-77
2021/12/10 04:33:59;;;;;;;14.32;7.82;;;;;;;-2.66;44.28;101141.41;3376006;29;20048;-76
2021/12/10 04:35:40;;;;;;;13.95;7.72;;;;;;;-2.66;44.27;101137.06;3375242;29;20139;-77
2021/12/10 04:37:21;;;;;;;14.73;9.25;;;;;;;-2.63;44.61;101143.91;3372061;29;20159;-75
2021/12/10 04:39:03;;;;;;;15.65;8.65;;;;;;;-2.64;44.15;101134.38;3375230;29;20040;-75
2021/12/10 04:40:47;;;;;;;16.83;7.55;;;;;;;-2.62;44.57;101142.97;3374253;29;20041;-74
2021/12/10 04:42:29;;;;;;;14.07;7.63;;;;;;;-2.63;44.40;101147.34;3371948;29;20084;-74
2021/12/10 04:44:11;;;;;;;22.90;8.73;;;;;;;-2.60;44.28;101146.34;3374911;29;20044;-75
2021/12/10 04:45:54;;;;;;;14.15;6.57;;;;;;;-2.57;44.60;101153.19;3374106;29;20531;-76
2021/12/10 04:47:34;;;;;;;12.93;6.97;;;;;;;-2.57;44.17;101158.41;3369779;29;20036;-74
2021/12/10 04:49:17;;;;;;;15.40;7.18;;;;;;;-2.55;44.59;101164.41;3374556;29;20091;-74
2021/12/10 04:50:58;;;;;;;12.80;7.20;;;;;;;-2.57;44.13;101150.59;3374593;29;20049;-75
2021/12/10 04:52:39;;;;;;;12.93;8.02;;;;;;;-2.60;44.08;101155.97;3374406;29;20468;-77
2021/12/10 04:54:21;;;;;;;12.27;7.47;;;;;;;-2.57;44.21;101169.69;3373267;29;20052;-76
2021/12/10 04:56:02;;;;;;;12.00;7.25;;;;;;;-2.58;44.13;101180.19;3374721;29;20036;-76
2021/12/10 04:57:44;;;;;;;14.18;7.07;;;;;;;-2.61;44.53;101169.91;3368017;29;20037;-77
2021/12/10 04:59:26;;;;;;;;;;;;;;;-2.53;44.29;101171.25;3359294;29;20710;-76
2021/12/10 05:01:07;;;;;;;10.80;7.03;;;;;;;-2.61;44.06;101170.75;3357509;29;20030;-74
2021/12/10 05:02:48;;;;;;;11.73;6.07;;;;;;;-2.66;44.24;101173.59;3360467;29;20037;-74
2021/12/10 05:04:29;;;;;;;14.90;6.07;;;;;;;-2.66;44.57;101170.13;3374090;29;20043;-75
2021/12/10 05:06:10;;;;;;;14.52;7.20;;;;;;;-2.68;44.98;101172.81;3373846;29;20108;-76
2021/12/10 05:07:51;;;;;;;18.00;6.50;;;;;;;-2.68;45.04;101182.41;3383627;29;20040;-77
2021/12/10 05:09:32;;;;;;;16.77;7.03;;;;;;;-2.68;44.93;101182.41;3377179;29;20208;-77
2021/12/10 05:11:13;;;;;;;15.38;6.90;;;;;;;-2.70;45.00;101182.47;3373214;29;20512;-77
2021/12/10 05:12:54;;;;;;;12.07;7.20;;;;;;;-2.73;44.80;101182.63;3375200;29;20040;-77
2021/12/10 05:14:35;;;;;;;12.95;7.25;;;;;;;-2.74;44.93;101196.56;3373391;29;20401;-75
2021/12/10 05:16:17;;;;;;;9.52;6.97;;;;;;;-2.72;44.86;101196.53;3371025;29;20101;-76
2021/12/10 05:17:58;;;;;;;13.43;7.22;;;;;;;-2.73;44.86;101198.28;3374746;29;20560;-77
2021/12/10 05:19:40;;;;;;;11.95;7.70;;;;;;;-2.70;44.92;101199.91;3360982;29;20074;-76
2021/12/10 05:21:21;;;;;;;12.43;6.43;;;;;;;-2.69;44.99;101189.38;3371931;29;20564;-76
2021/12/10 05:23:03;;;;;;;15.27;7.80;;;;;;;-2.69;44.68;101194.59;3374236;29;20056;-76
2021/12/10 05:24:43;;;;;;;14.17;7.57;;;;;;;-2.72;44.53;101184.31;3369450;29;20041;-75
2021/12/10 05:26:25;;;;;;;16.92;8.40;;;;;;;-2.69;44.51;101192.00;3374668;29;20090;-77
2021/12/10 05:28:05;;;;;;;15.32;6.72;;;;;;;-2.67;44.55;101190.16;3372022;29;20037;-76
2021/12/10 05:29:46;;;;;;;15.88;8.05;;;;;;;-2.68;44.41;101191.09;3377556;29;20047;-74
2021/12/10 05:31:27;;;;;;;16.33;7.93;;;;;;;-2.67;44.54;101197.97;3376091;29;20048;-72
2021/12/10 05:33:14;;;;;;;14.27;7.45;;;;;;;-2.69;44.34;101193.75;3367401;29;20060;-73
2021/12/10 05:34:56;;;;;;;21.30;9.13;;;;;;;-2.66;44.43;101198.81;3374356;29;20361;-72
2021/12/10 05:36:38;;;;;;;14.73;7.70;;;;;;;-2.67;44.43;101192.75;3377188;29;20036;-75
2021/12/10 05:38:20;;;;;;;16.20;6.83;;;;;;;-2.65;44.42;101198.75;3377248;29;20135;-74
2021/12/10 05:40:03;;;;;;;16.17;8.02;;;;;;;-2.66;44.64;101198.81;3377710;29;20292;-79
2021/12/10 05:41:44;;;;;;;11.30;7.30;;;;;;;-2.66;44.59;101197.09;3370559;29;20104;-77
2021/12/10 05:43:25;;;;;;;12.75;7.50;;;;;;;-2.70;44.60;101187.69;3376258;29;20048;-77
2021/12/10 05:45:07;;;;;;;15.07;7.43;;;;;;;-2.70;44.37;101194.69;3378283;29;20088;-77
2021/12/10 05:46:48;;;;;;;11.93;6.40;;;;;;;-2.68;44.38;101198.91;3375335;29;20041;-77
2021/12/10 05:48:28;;;;;;;15.27;7.25;;;;;;;-2.68;44.33;101195.47;3374450;29;20041;-77
2021/12/10 05:50:10;;;;;;;14.32;7.90;;;;;;;-2.70;44.49;101198.13;3386841;29;20504;-77
2021/12/10 05:51:51;;;;;;;12.07;6.72;;;;;;;-2.73;44.37;101193.06;3379887;29;20078;-77
2021/12/10 05:53:32;;;;;;;12.68;6.53;;;;;;;-2.71;44.17;101195.59;3376532;29;20541;-76
2021/12/10 05:55:15;;;;;;;15.77;6.80;;;;;;;-2.71;44.19;101195.59;3373234;29;20079;-78
2021/12/10 05:56:56;;;;;;;11.10;7.28;;;;;;;-2.69;44.27;101215.47;3373233;29;20048;-79
2021/12/10 05:58:37;;;;;;;10.52;7.05;;;;;;;-2.69;44.15;101204.19;3376177;29;20104;-78
2021/12/10 06:00:22;;;;;;;12.48;5.93;;;;;;;-2.66;44.50;101212.75;3375103;29;20087;-78
2021/12/10 06:02:03;;;;;;;12.60;6.00;;;;;;;-2.65;44.41;101211.81;3375413;29;20045;-77
2021/12/10 06:03:51;;;;;;;10.30;6.63;;;;;;;-2.64;44.23;101217.88;3364007;29;20049;-75
2021/12/10 06:05:33;;;;;;;12.52;6.38;;;;;;;-2.62;44.26;101221.25;3363125;29;20416;-78
2021/12/10 06:07:14;;;;;;;;;;;;;;;-2.52;44.45;101221.69;3364702;29;20040;-78
2021/12/10 06:08:56;;;;;;;10.63;6.20;;;;;;;-2.59;44.00;101230.72;3364564;29;19926;-78
2021/12/10 06:10:40;;;;;;;12.10;5.88;;;;;;;-2.61;44.14;101224.72;3378092;29;20124;-78
2021/12/10 06:12:21;;;;;;;12.40;6.43;;;;;;;-2.61;44.32;101227.31;3376918;29;20049;-80
2021/12/10 06:14:02;;;;;;;15.45;6.30;;;;;;;-2.64;44.28;101226.53;3377297;29;20501;-79
2021/12/10 06:15:44;;;;;;;10.27;5.97;;;;;;;-2.61;44.24;101232.53;3372652;29;20041;-76
2021/12/10 06:17:25;;;;;;;11.52;5.75;;;;;;;-2.63;44.31;101225.63;3364601;29;20045;-77
2021/12/10 06:19:07;;;;;;;9.13;5.95;;;;;;;-2.62;44.28;101231.69;3372079;29;20047;-78
2021/12/10 06:20:50;;;;;;;10.30;6.35;;;;;;;-2.61;43.94;101232.53;3377118;29;20041;-77
2021/12/10 06:22:30;;;;;;;8.55;6.18;;;;;;;-2.63;43.92;101228.25;3376379;29;20496;-79
2021/12/10 06:24:11;;;;;;;9.32;6.00;;;;;;;-2.60;44.03;101234.25;3376128;29;20131;-78
2021/12/10 06:25:52;;;;;;;14.50;6.25;;;;;;;-2.58;44.06;101235.00;3375377;29;20047;-78
2021/12/10 06:27:33;;;;;;;13.35;6.78;;;;;;;-2.55;44.06;101234.88;3374579;29;20082;-77
2021/12/10 06:29:14;;;;;;;11.70;6.65;;;;;;;-2.54;44.00;101228.72;3364204;29;20068;-77
2021/12/10 06:30:54;;;;;;;9.80;6.10;;;;;;;-2.52;43.96;101238.19;3363299;29;20049;-78
2021/12/10 06:32:35;;;;;;;10.73;6.63;;;;;;;-2.50;43.77;101232.91;3367763;29;20048;-76
2021/12/10 06:34:16;;;;;;;14.90;7.05;;;;;;;-2.48;43.84;101233.66;3376463;29;20041;-78
2021/12/10 06:36:00;;;;;;;16.80;6.93;;;;;;;-2.46;43.88;101244.88;3388585;29;20127;-78
2021/12/10 06:37:42;;;;;;;10.57;6.32;;;;;;;-2.45;43.87;101233.53;3378523;29;20046;-78
2021/12/10 06:39:23;;;;;;;12.23;6.43;;;;;;;-2.42;43.75;101241.22;3374013;29;20051;-78
2021/12/10 06:41:04;;;;;;;8.60;5.70;;;;;;;-2.41;43.78;101240.28;3375530;29;20416;-78
2021/12/10 06:42:45;;;;;;;11.60;6.87;;;;;;;-2.38;43.62;101239.28;3376251;29;20154;-78
2021/12/10 06:44:26;;;;;;;10.90;6.75;;;;;;;-2.38;43.99;101250.56;3375696;29;20064;-78
2021/12/10 06:46:07;;;;;;;10.07;6.63;;;;;;;-2.38;43.96;101240.13;3369452;29;20040;-78
2021/12/10 06:47:50;;;;;;;13.30;6.78;;;;;;;-2.39;43.67;101233.22;3364684;29;20556;-77
2021/12/10 06:49:32;;;;;;;13.57;6.93;;;;;;;-2.36;43.71;101242.69;3376511;29;20089;-78
2021/12/10 06:51:18;;;;;;;15.02;7.38;;;;;;;-2.34;44.04;101240.84;3376800;29;20512;-79
2021/12/10 06:52:59;;;;;;;19.52;6.78;;;;;;;-2.35;43.63;101240.00;3370752;29;20094;-79
2021/12/10 06:54:40;;;;;;;12.05;7.05;;;;;;;-2.32;44.03;101245.06;3361349;29;20036;-79
2021/12/10 06:56:25;;;;;;;11.65;6.82;;;;;;;-2.36;43.74;101233.06;3376819;29;20534;-78
2021/12/10 06:58:07;;;;;;;20.48;8.20;;;;;;;-2.30;43.52;101240.59;3375627;29;20044;-78
2021/12/10 06:59:48;;;;;;;;;;;;;;;-2.16;43.89;101242.56;3377692;29;20052;-78
2021/12/10 07:01:32;;;;;;;14.10;6.93;;;;;;;-2.22;43.68;101242.84;3376158;29;19927;-79
2021/12/10 07:03:17;;;;;;;14.18;8.00;;;;;;;-2.26;43.45;101234.31;3362858;29;20049;-78
2021/12/10 07:04:58;;;;;;;13.10;6.07;;;;;;;-2.22;43.58;101229.78;3385321;29;20040;-78
2021/12/10 07:06:41;;;;;;;11.05;5.35;;;;;;;-2.22;43.63;101230.66;3375836;29;20744;-78
2021/12/10 07:08:24;;;;;;;10.00;6.10;;;;;;;-2.24;43.36;101227.25;3376676;29;20044;-78
2021/12/10 07:10:07;;;;;;;12.38;7.13;;;;;;;-2.22;43.58;101238.50;3376589;29;20047;-79
2021/12/10 07:11:49;;;;;;;11.88;5.57;;;;;;;-2.24;43.23;101235.09;3375825;29;20037;-77
2021/12/10 07:13:33;;;;;;;10.60;6.43;;;;;;;-2.17;43.16;101243.47;3376076;29;20040;-77
2021/12/10 07:15:15;;;;;;;12.93;7.18;;;;;;;-2.18;43.54;101246.16;3376456;29;20036;-78
2021/12/10 07:16:56;;;;;;;9.90;5.93;;;;;;;-2.13;43.27;101249.41;3377084;29;20527;-79
2021/12/10 07:18:38;;;;;;;14.20;6.70;;;;;;;-2.18;43.13;101238.34;3376885;29;20036;-78
2021/12/10 07:20:21;;;;;;;12.47;5.87;;;;;;;-2.13;43.53;101246.78;3376574;29;20099;-79
2021/12/10 07:22:03;;;;;;;13.57;5.65;;;;;;;-2.13;43.57;101237.19;3378230;29;20128;-78
2021/12/10 07:23:44;;;;;;;12.50;7.55;;;;;;;-2.08;43.22;101244.81;3377766;29;20044;-78
2021/12/10 07:25:26;;;;;;;16.50;7.35;;;;;;;-2.08;42.88;101244.81;3378733;29;20075;-79
2021/12/10 07:27:11;;;;;;;16.83;8.13;;;;;;;-2.05;42.96;101247.25;3376394;29;20135;-79
2021/12/10 07:28:52;;;;;;;13.23;5.90;;;;;;;-2.03;42.91;101245.44;3375270;29;20496;-78
2021/12/10 07:30:33;;;;;;;17.27;7.75;;;;;;;-2.01;42.81;101243.59;3349985;29;20041;-80
2021/12/10 07:32:19;;;;;;;15.93;6.50;;;;;;;-1.92;42.80;101242.28;3372470;29;20127;-79
2021/12/10 07:34:01;;;;;;;15.95;7.07;;;;;;;-1.43;42.69;101240.63;3374591;29;20112;-77
2021/12/10 07:35:41;;;;;;;13.60;6.80;;;;;;;-0.76;41.89;101235.38;3375680;29;20048;-78
2021/12/10 07:37:22;;;;;;;10.25;6.78;;;;;;;0.08;40.96;101242.88;3376197;29;20047;-78
2021/12/10 07:39:06;;;;;;;9.77;6.20;;;;;;;0.71;40.58;101232.16;3376361;29;20045;-80
2021/12/10 07:40:48;;;;;;;9.60;6.25;;;;;;;1.20;39.87;101244.88;3363358;29;20549;-77
2021/12/10 07:42:29;;;;;;;16.42;7.25;;;;;;;1.45;40.16;101238.09;3387944;29;20040;-78
2021/12/10 07:44:11;;;;;;;12.23;5.90;;;;;;;1.52;40.03;101244.63;3376094;29;20064;-76
2021/12/10 07:45:52;;;;;;;11.02;6.45;;;;;;;1.57;40.28;101239.94;3376143;29;20139;-75
2021/12/10 07:47:36;;;;;;;12.15;8.23;;;;;;;1.57;40.17;101246.97;3375094;29;20087;-78
2021/12/10 07:49:18;;;;;;;12.23;7.07;;;;;;;1.54;39.95;101253.25;3374466;29;20562;-77
2021/12/10 07:51:04;;;;;;;12.52;6.53;;;;;;;1.46;39.68;101259.00;3383687;29;20032;-76
2021/12/10 07:52:45;;;;;;;11.00;7.25;;;;;;;1.35;39.83;101263.28;3378300;29;20063;-77
2021/12/10 07:54:26;;;;;;;13.07;6.55;;;;;;;1.20;39.88;101252.75;3375612;29;20043;-77
2021/12/10 07:56:08;;;;;;;11.27;6.78;;;;;;;1.03;39.64;101243.31;3376007;29;20051;-75
2021/12/10 07:57:51;;;;;;;15.63;7.13;;;;;;;0.92;39.67;101245.75;3375802;29;20037;-78
2021/12/10 07:59:32;;;;;;;15.45;7.05;;;;;;;0.78;39.78;101248.38;3377012;29;20174;-75
2021/12/10 08:01:19;;;;;;;10.75;6.60;;;;;;;0.61;39.29;101241.50;3386540;29;20048;-77
2021/12/10 08:03:02;;;;;;;11.88;6.45;;;;;;;0.48;39.46;101251.06;3376974;29;20543;-77
2021/12/10 08:04:44;;;;;;;10.10;6.15;;;;;;;0.36;39.91;101245.63;3376024;29;20057;-78